Time;durP1;ratioP1;P1;durP2;ratioP2;P2;SDS_P1;SDS_P2;PMS_P1;PMS_P2;Temp;Humidity;BMP_temperature;BMP_pressure;BME280_temperature;BME280_humidity;BME280_pressure;Samples;Min_cycle;Max_cycle;Signal;HPM_P1;HPM_P2
2021/08/06 00:02:00;;;;;;;37.22;28.90;;;17.70;99.30;;;;;;5073478;28;20464;-50
2021/08/06 00:04:26;;;;;;;40.40;32.20;;;17.70;99.30;;;;;;5091903;28;20115;-52
2021/08/06 00:06:51;;;;;;;36.33;30.42;;;17.80;99.30;;;;;;5076103;28;20084;-51
2021/08/06 00:09:17;;;;;;;32.95;27.65;;;17.70;99.20;;;;;;5091635;28;20062;-51
2021/08/06 00:11:42;;;;;;;32.00;26.20;;;17.70;99.10;;;;;;5091772;28;20052;-50
2021/08/06 00:14:09;;;;;;;31.08;26.83;;;17.70;99.10;;;;;;5092366;28;20036;-51
2021/08/06 00:16:34;;;;;;;32.80;27.60;;;17.60;99.00;;;;;;5093839;28;20024;-48
2021/08/06 00:19:00;;;;;;;30.83;27.20;;;17.40;99.10;;;;;;5091337;28;20031;-53
2021/08/06 00:21:25;;;;;;;33.42;29.42;;;17.40;98.90;;;;;;5093918;28;20036;-49
2021/08/06 00:23:51;;;;;;;32.80;28.83;;;17.30;99.20;;;;;;5091539;28;20139;-49
2021/08/06 00:26:17;;;;;;;30.65;27.42;;;17.30;99.50;;;;;;5094098;28;20020;-50
2021/08/06 00:28:43;;;;;;;31.45;28.05;;;17.20;99.40;;;;;;5089845;28;20094;-53
2021/08/06 00:31:09;;;;;;;28.58;25.67;;;17.20;99.30;;;;;;5082348;28;20503;-50
2021/08/06 00:33:34;;;;;;;29.52;26.55;;;17.30;99.30;;;;;;5091800;28;20059;-52
2021/08/06 00:36:00;;;;;;;82.75;31.00;;;17.20;99.40;;;;;;5076863;28;20056;-48
2021/08/06 00:38:25;;;;;;;32.83;28.08;;;17.10;99.30;;;;;;5095872;28;20101;-54
2021/08/06 00:40:51;;;;;;;31.77;28.42;;;17.10;99.40;;;;;;5095857;28;20048;-50
2021/08/06 00:43:17;;;;;;;29.20;26.15;;;17.10;99.70;;;;;;5096441;28;20028;-53
2021/08/06 00:45:43;;;;;;;29.00;25.23;;;17.00;99.80;;;;;;5095316;28;20085;-48
2021/08/06 00:48:09;;;;;;;29.35;26.50;;;17.10;99.90;;;;;;5095341;28;20032;-49
2021/08/06 00:50:34;;;;;;;29.25;26.20;;;17.20;99.80;;;;;;5095941;28;20108;-54
2021/08/06 00:53:00;;;;;;;30.23;26.42;;;17.20;99.70;;;;;;5095924;28;20093;-49
2021/08/06 00:55:26;;;;;;;30.27;26.70;;;17.20;99.60;;;;;;5077322;28;20424;-48
2021/08/06 00:57:52;;;;;;;28.17;25.05;;;17.10;99.60;;;;;;5096091;28;20084;-48
2021/08/06 01:00:18;;;;;;;26.67;23.98;;;17.10;99.70;;;;;;5095786;28;20035;-49
2021/08/06 01:03:01;;;;;;;27.30;24.38;;;17.10;99.60;;;;;;5095057;28;20356;-54
2021/08/06 01:05:34;;;;;;;25.88;23.20;;;17.10;99.60;;;;;;5095579;28;20115;-53
2021/08/06 01:08:17;;;;;;;26.83;24.02;;;17.20;99.60;;;;;;5095157;28;20030;-49
2021/08/06 01:11:14;;;;;;;23.95;21.45;;;17.20;99.40;;;;;;5078198;28;20495;-55
2021/08/06 01:13:43;;;;;;;23.08;20.67;;;17.20;99.40;;;;;;5076309;28;20071;-53
2021/08/06 01:16:12;;;;;;;23.35;20.88;;;17.20;99.40;;;;;;5095197;28;20093;-50
2021/08/06 01:18:43;;;;;;;23.90;21.50;;;17.20;99.40;;;;;;5094263;28;20368;-54
2021/08/06 01:21:14;;;;;;;22.85;20.55;;;17.20;99.40;;;;;;5090478;28;20080;-48
2021/08/06 01:23:41;;;;;;;24.25;21.70;;;17.30;99.40;;;;;;5095401;28;20024;-53
2021/08/06 01:26:13;;;;;;;24.88;22.35;;;17.30;99.20;;;;;;5094771;28;20031;-51
2021/08/06 01:28:42;;;;;;;23.73;21.13;;;17.20;99.10;;;;;;5091242;28;20036;-48
2021/08/06 01:31:09;;;;;;;24.15;21.55;;;17.20;99.00;;;;;;5087027;28;20499;-50
2021/08/06 01:33:35;;;;;;;21.48;19.35;;;17.10;99.10;;;;;;5088097;28;20029;-48
2021/08/06 01:36:01;;;;;;;22.40;19.77;;;17.00;99.20;;;;;;5084963;28;20070;-52
2021/08/06 01:38:27;;;;;;;23.77;21.35;;;17.00;99.20;;;;;;5093385;28;20032;-48
2021/08/06 01:41:16;;;;;;;21.40;19.25;;;16.90;99.40;;;;;;5084009;28;20048;-51
2021/08/06 01:44:02;;;;;;;22.27;19.95;;;16.90;99.40;;;;;;5092546;28;20055;-50
2021/08/06 01:46:34;;;;;;;21.80;19.67;;;16.90;99.40;;;;;;5092713;28;20036;-51
2021/08/06 01:49:12;;;;;;;20.42;18.33;;;16.90;99.60;;;;;;5093579;28;20148;-46
2021/08/06 01:51:42;;;;;;;21.45;19.35;;;16.90;99.30;;;;;;5093647;28;20028;-50
2021/08/06 01:54:11;;;;;;;20.92;18.30;;;16.90;99.30;;;;;;5093208;28;20105;-51
2021/08/06 01:56:38;;;;;;;20.52;18.42;;;16.90;99.20;;;;;;5092631;28;20054;-50
2021/08/06 01:59:05;;;;;;;20.65;18.65;;;16.90;99.30;;;;;;5093147;28;20028;-52
2021/08/06 02:01:31;;;;;;;21.08;18.90;;;17.00;99.20;;;;;;5075017;28;20024;-53
2021/08/06 02:03:57;;;;;;;21.38;19.15;;;17.00;99.10;;;;;;5093281;28;20056;-50
2021/08/06 02:06:23;;;;;;;21.02;18.98;;;17.00;99.00;;;;;;5092990;28;20467;-51
2021/08/06 02:08:49;;;;;;;21.83;19.63;;;17.00;99.00;;;;;;5093212;28;20058;-53
2021/08/06 02:11:18;;;;;;;20.38;18.38;;;16.90;98.80;;;;;;5089698;28;20096;-47
2021/08/06 02:13:44;;;;;;;19.00;17.05;;;16.80;99.00;;;;;;5083587;28;20063;-47
2021/08/06 02:16:10;;;;;;;21.92;19.70;;;16.80;99.20;;;;;;5090806;28;20052;-47
2021/08/06 02:18:37;;;;;;;24.98;19.92;;;16.80;99.20;;;;;;5080161;28;20064;-48
2021/08/06 02:21:14;;;;;;;18.88;16.98;;;16.80;99.20;;;;;;5069117;28;20089;-51
2021/08/06 02:23:44;;;;;;;21.13;19.02;;;16.70;99.30;;;;;;5092795;28;20020;-54
2021/08/06 02:26:12;;;;;;;20.30;18.20;;;16.80;99.30;;;;;;5092726;28;20514;-51
2021/08/06 02:28:40;;;;;;;22.73;20.33;;;16.80;99.30;;;;;;5036963;28;1043073;-51
2021/08/06 02:31:06;;;;;;;22.85;20.17;;;16.90;99.30;;;;;;5087126;28;20098;-53
2021/08/06 02:33:32;;;;;;;21.85;19.65;;;16.90;99.30;;;;;;5081284;28;20032;-52
2021/08/06 02:35:58;;;;;;;21.75;19.48;;;16.90;99.30;;;;;;5094185;28;20109;-50
2021/08/06 02:38:24;;;;;;;22.67;20.30;;;16.90;99.30;;;;;;5093650;28;20487;-55
2021/08/06 02:40:51;;;;;;;24.08;20.80;;;16.90;99.30;;;;;;5094064;28;20058;-50
2021/08/06 02:43:17;;;;;;;23.30;20.88;;;17.00;99.20;;;;;;5093502;28;20099;-50
2021/08/06 02:45:47;;;;;;;23.88;21.38;;;17.00;99.20;;;;;;5094145;28;20060;-50
2021/08/06 02:48:12;;;;;;;21.50;19.20;;;17.00;99.10;;;;;;5092352;28;20115;-54
2021/08/06 02:50:38;;;;;;;26.08;23.38;;;17.00;99.10;;;;;;5091877;28;20102;-54
2021/08/06 02:53:04;;;;;;;26.65;23.20;;;17.00;99.10;;;;;;5092926;28;20081;-53
2021/08/06 02:55:29;;;;;;;28.52;23.88;;;16.90;99.10;;;;;;5092820;28;20436;-51
2021/08/06 02:57:55;;;;;;;24.83;22.13;;;16.90;99.20;;;;;;5092176;28;20028;-49
2021/08/06 03:00:20;;;;;;;39.78;32.55;;;17.00;99.20;;;;;;5092548;28;20105;-49
2021/08/06 03:02:46;;;;;;;47.60;36.50;;;17.00;99.20;;;;;;5093124;28;20051;-55
2021/08/06 03:05:11;;;;;;;35.42;28.65;;;17.00;99.20;;;;;;5093164;28;20043;-56
2021/08/06 03:07:37;;;;;;;31.05;24.75;;;16.90;99.20;;;;;;5092738;28;20027;-47
2021/08/06 03:10:05;;;;;;;33.80;26.00;;;16.90;99.30;;;;;;5092758;28;20395;-49
2021/08/06 03:12:30;;;;;;;28.75;24.15;;;16.90;99.30;;;;;;5092909;28;20028;-52
2021/08/06 03:14:56;;;;;;;28.67;23.02;;;16.90;99.40;;;;;;5092842;28;20032;-47
2021/08/06 03:17:21;;;;;;;30.95;24.90;;;16.80;99.40;;;;;;5092366;28;20036;-51
2021/08/06 03:19:47;;;;;;;33.22;25.90;;;16.80;99.50;;;;;;5085613;28;20020;-49
2021/08/06 03:22:12;;;;;;;34.22;25.20;;;16.80;99.70;;;;;;5092482;28;20052;-53
2021/08/06 03:24:38;;;;;;;32.35;25.80;;;16.70;99.80;;;;;;5092901;28;20024;-50
2021/08/06 03:27:04;;;;;;;31.20;25.05;;;16.70;99.90;;;;;;5092462;28;20407;-49
2021/08/06 03:29:29;;;;;;;34.92;27.05;;;16.80;99.90;;;;;;5092570;28;20422;-49
2021/08/06 03:31:55;;;;;;;33.95;26.58;;;16.80;99.90;;;;;;5092587;28;20035;-53
2021/08/06 03:34:20;;;;;;;47.30;27.58;;;16.80;99.70;;;;;;5092912;28;20028;-47
2021/08/06 03:36:46;;;;;;;43.45;26.42;;;16.80;99.80;;;;;;5091796;28;20645;-51
2021/08/06 03:39:12;;;;;;;39.95;26.83;;;16.80;99.80;;;;;;5092522;28;20395;-52
2021/08/06 03:41:37;;;;;;;41.53;27.92;;;16.70;99.80;;;;;;5091808;28;20040;-51
2021/08/06 03:44:03;;;;;;;40.53;27.85;;;16.70;99.90;;;;;;5092437;28;20067;-50
2021/08/06 03:46:28;;;;;;;43.97;27.85;;;16.70;99.90;;;;;;5092186;28;20024;-49
2021/08/06 03:48:54;;;;;;;40.35;27.17;;;16.70;99.90;;;;;;5092557;28;20032;-50
2021/08/06 03:51:19;;;;;;;41.45;24.83;;;16.80;99.80;;;;;;5092204;28;20384;-49
2021/08/06 03:53:45;;;;;;;47.13;28.73;;;16.80;99.80;;;;;;5093439;28;20028;-55
2021/08/06 03:56:11;;;;;;;38.95;26.45;;;16.80;99.70;;;;;;5093114;28;20024;-49
2021/08/06 03:58:37;;;;;;;41.55;27.88;;;16.90;99.70;;;;;;5092667;28;20066;-48
2021/08/06 04:01:03;;;;;;;38.10;26.70;;;16.80;99.70;;;;;;5092406;28;20475;-50
2021/08/06 04:03:28;;;;;;;37.17;26.65;;;16.80;99.70;;;;;;5091966;28;20047;-48
2021/08/06 04:05:54;;;;;;;41.92;24.92;;;16.80;99.70;;;;;;5092638;28;20407;-52
2021/08/06 04:08:19;;;;;;;36.08;23.83;;;16.80;99.50;;;;;;5092191;28;20028;-51
2021/08/06 04:10:45;;;;;;;35.10;22.88;;;16.70;98.90;;;;;;5091948;28;20028;-54
2021/08/06 04:13:10;;;;;;;29.05;23.13;;;16.50;99.50;;;;;;5092064;28;20032;-48
2021/08/06 04:15:36;;;;;;;30.63;23.67;;;16.40;99.80;;;;;;5091887;28;20426;-48
2021/08/06 04:18:02;;;;;;;33.70;24.35;;;16.40;99.90;;;;;;5091849;28;20480;-48
2021/08/06 04:20:27;;;;;;;32.75;23.30;;;16.40;99.90;;;;;;5085412;28;20028;-51
2021/08/06 04:22:53;;;;;;;24.92;22.30;;;16.40;99.90;;;;;;5091919;28;20032;-47
2021/08/06 04:25:19;;;;;;;24.00;21.38;;;16.40;99.90;;;;;;5091520;28;20135;-47
2021/08/06 04:27:44;;;;;;;30.25;23.45;;;16.40;99.90;;;;;;5092007;28;20505;-51
2021/08/06 04:30:11;;;;;;;32.13;24.48;;;16.50;99.90;;;;;;5082232;28;20032;-51
2021/08/06 04:32:37;;;;;;;38.00;26.38;;;16.50;99.90;;;;;;5091703;28;20028;-55
2021/08/06 04:35:03;;;;;;;37.35;26.55;;;16.40;99.90;;;;;;5091642;28;20120;-55
2021/08/06 04:37:28;;;;;;;36.33;24.00;;;16.40;99.90;;;;;;5091426;28;20064;-52
2021/08/06 04:39:54;;;;;;;35.35;25.60;;;16.50;99.90;;;;;;5077749;28;20048;-47
2021/08/06 04:42:20;;;;;;;37.85;25.23;;;16.60;99.80;;;;;;5091947;28;20099;-48
2021/08/06 04:44:45;;;;;;;39.03;27.65;;;16.70;99.60;;;;;;5091569;28;20090;-48
2021/08/06 04:47:11;;;;;;;46.75;26.70;;;16.70;99.60;;;;;;5091272;28;20051;-51
2021/08/06 04:49:37;;;;;;;46.92;28.70;;;16.70;99.50;;;;;;5091447;28;20039;-52
2021/08/06 04:52:03;;;;;;;39.72;27.13;;;16.50;99.40;;;;;;5091792;28;20028;-49
2021/08/06 04:54:29;;;;;;;37.00;27.33;;;16.50;99.60;;;;;;5077692;28;20035;-53
2021/08/06 04:56:54;;;;;;;36.10;25.02;;;16.40;99.60;;;;;;5091244;28;20423;-48
2021/08/06 04:59:20;;;;;;;35.67;25.00;;;16.30;99.90;;;;;;5091534;28;20161;-50
2021/08/06 05:01:46;;;;;;;31.80;23.73;;;16.40;99.90;;;;;;5091540;28;20035;-48
2021/08/06 05:04:11;;;;;;;45.05;25.67;;;16.50;99.90;;;;;;5088642;28;20499;-52
2021/08/06 05:06:37;;;;;;;34.33;23.63;;;16.50;99.50;;;;;;5091760;28;20032;-53
2021/08/06 05:09:03;;;;;;;34.50;24.05;;;16.50;99.60;;;;;;5091400;28;20024;-49
2021/08/06 05:11:29;;;;;;;30.38;21.30;;;16.60;99.60;;;;;;5091523;28;20063;-51
2021/08/06 05:13:54;;;;;;;34.97;23.00;;;16.60;99.50;;;;;;5091606;28;20070;-48
2021/08/06 05:16:20;;;;;;;31.17;23.83;;;16.70;99.20;;;;;;5091434;28;20031;-50
2021/08/06 05:18:46;;;;;;;34.40;23.27;;;16.80;99.10;;;;;;5089407;28;20044;-51
2021/08/06 05:21:11;;;;;;;32.15;22.27;;;16.80;98.80;;;;;;5088368;28;20028;-52
2021/08/06 05:23:37;;;;;;;43.42;29.15;;;16.70;98.60;;;;;;5095627;28;20066;-51
2021/08/06 05:26:03;;;;;;;34.53;24.33;;;16.60;99.00;;;;;;5095283;28;20047;-52
2021/08/06 05:28:29;;;;;;;38.55;26.00;;;16.60;98.90;;;;;;5093481;28;20496;-49
2021/08/06 05:30:54;;;;;;;33.97;23.95;;;16.50;98.70;;;;;;5086419;28;20040;-52
2021/08/06 05:33:20;;;;;;;31.13;22.05;;;16.50;99.00;;;;;;5094984;28;20032;-48
2021/08/06 05:35:46;;;;;;;29.23;21.13;;;16.60;99.00;;;;;;5094575;28;20105;-50
2021/08/06 05:38:11;;;;;;;32.53;22.08;;;16.70;98.90;;;;;;5095125;28;20028;-47
2021/08/06 05:40:37;;;;;;;33.78;23.10;;;16.90;98.80;;;;;;5094988;28;20024;-47
2021/08/06 05:43:02;;;;;;;34.03;24.90;;;17.00;98.50;;;;;;5094893;28;20052;-52
2021/08/06 05:45:28;;;;;;;31.90;23.23;;;16.90;98.20;;;;;;5094583;28;20031;-49
2021/08/06 05:47:55;;;;;;;34.40;25.40;;;16.70;98.00;;;;;;5094434;28;20115;-51
2021/08/06 05:50:23;;;;;;;30.02;23.27;;;16.70;98.10;;;;;;5094643;28;20032;-48
2021/08/06 05:52:49;;;;;;;33.17;24.77;;;16.60;98.40;;;;;;5076630;28;20036;-48
2021/08/06 05:55:15;;;;;;;30.35;23.45;;;16.70;98.40;;;;;;5094323;28;20389;-54
2021/08/06 05:57:41;;;;;;;32.63;23.60;;;16.70;98.50;;;;;;5094140;28;20404;-51
2021/08/06 06:00:08;;;;;;;28.88;22.77;;;16.80;98.40;;;;;;5094292;28;20028;-50
2021/08/06 06:02:34;;;;;;;34.45;26.38;;;16.90;98.20;;;;;;5079911;28;20050;-47
2021/08/06 06:05:00;;;;;;;36.15;25.42;;;16.90;97.70;;;;;;5076105;28;20539;-51
2021/08/06 06:07:25;;;;;;;41.30;30.15;;;16.80;98.00;;;;;;5076259;28;20032;-55
2021/08/06 06:09:51;;;;;;;36.92;28.63;;;16.70;98.20;;;;;;5094172;28;20067;-51
2021/08/06 06:12:16;;;;;;;33.45;27.05;;;16.70;98.30;;;;;;5094438;28;20472;-48
2021/08/06 06:14:42;;;;;;;35.80;27.63;;;16.90;98.20;;;;;;5094225;28;20073;-47
2021/08/06 06:17:08;;;;;;;37.88;29.73;;;17.00;97.90;;;;;;5075349;28;20056;-48
2021/08/06 06:19:33;;;;;;;34.75;27.83;;;17.10;97.80;;;;;;5069436;28;20043;-50
2021/08/06 06:21:59;;;;;;;43.15;32.00;;;17.20;97.60;;;;;;5094094;28;20493;-53
2021/08/06 06:24:25;;;;;;;51.72;39.10;;;17.30;97.40;;;;;;5094216;28;20064;-49
2021/08/06 06:26:50;;;;;;;47.38;32.75;;;17.50;97.40;;;;;;5079444;28;20494;-50
2021/08/06 06:29:16;;;;;;;46.22;32.70;;;17.50;96.60;;;;;;5086127;28;20438;-47
2021/08/06 06:31:41;;;;;;;43.95;31.08;;;17.50;97.10;;;;;;5087537;28;20037;-55
2021/08/06 06:34:07;;;;;;;49.65;35.25;;;17.60;97.30;;;;;;5083546;28;20456;-48
2021/08/06 06:36:32;;;;;;;42.10;32.15;;;17.50;97.00;;;;;;5079416;28;20523;-51
2021/08/06 06:38:58;;;;;;;41.50;31.77;;;17.50;96.90;;;;;;5094453;28;20067;-52
2021/08/06 06:41:24;;;;;;;47.85;36.63;;;17.30;97.20;;;;;;5093232;28;20044;-51
2021/08/06 06:43:49;;;;;;;46.35;35.17;;;17.30;97.40;;;;;;5086256;28;20391;-49
2021/08/06 06:46:15;;;;;;;47.00;35.70;;;17.30;97.50;;;;;;5092884;28;20032;-49
2021/08/06 06:48:40;;;;;;;45.55;34.63;;;17.10;98.00;;;;;;5089038;28;20040;-48
2021/08/06 06:51:06;;;;;;;41.67;33.10;;;17.10;98.20;;;;;;5093280;28;20513;-51
2021/08/06 06:53:31;;;;;;;38.30;32.15;;;17.00;97.80;;;;;;5093339;28;20032;-51
2021/08/06 06:55:57;;;;;;;43.63;35.38;;;17.00;98.00;;;;;;5092722;28;20031;-47
2021/08/06 06:58:23;;;;;;;46.45;34.20;;;17.10;97.90;;;;;;5093086;28;20028;-49
2021/08/06 07:00:49;;;;;;;46.55;33.88;;;17.20;97.70;;;;;;5092808;28;20107;-50
2021/08/06 07:03:15;;;;;;;47.00;33.63;;;17.10;98.00;;;;;;5093555;28;20047;-50
2021/08/06 07:05:41;;;;;;;46.20;35.25;;;17.20;97.80;;;;;;5092870;28;20475;-54
2021/08/06 07:08:06;;;;;;;53.28;38.38;;;17.20;97.90;;;;;;5092665;28;20491;-54
2021/08/06 07:10:32;;;;;;;58.25;43.13;;;17.20;97.60;;;;;;5093133;28;20457;-56
2021/08/06 07:12:58;;;;;;;58.00;44.47;;;17.30;97.60;;;;;;5092705;28;20066;-49
2021/08/06 07:15:24;;;;;;;64.50;43.97;;;17.30;97.70;;;;;;5092478;28;20064;-52
2021/08/06 07:17:50;;;;;;;63.75;43.53;;;17.50;97.60;;;;;;5092913;28;20032;-48
2021/08/06 07:20:17;;;;;;;66.50;42.17;;;17.70;97.20;;;;;;5085867;28;20028;-47
2021/08/06 07:22:44;;;;;;;60.72;42.05;;;17.60;97.10;;;;;;5092975;28;20024;-56
2021/08/06 07:25:12;;;;;;;54.40;39.60;;;17.70;97.20;;;;;;5086640;28;20033;-51
2021/08/06 07:27:39;;;;;;;66.50;43.78;;;17.90;97.10;;;;;;5085138;28;20498;-49
2021/08/06 07:30:05;;;;;;;67.53;45.10;;;17.90;96.40;;;;;;5095173;28;20044;-48
2021/08/06 07:32:31;;;;;;;60.70;43.33;;;17.60;97.10;;;;;;5093290;28;20035;-54
2021/08/06 07:34:57;;;;;;;56.80;42.15;;;17.40;97.50;;;;;;5092782;28;20020;-56
2021/08/06 07:37:23;;;;;;;54.15;39.92;;;17.50;97.20;;;;;;5091870;28;20040;-52
2021/08/06 07:39:49;;;;;;;60.72;41.72;;;17.50;97.30;;;;;;5092503;28;20475;-54
2021/08/06 07:42:15;;;;;;;63.53;43.95;;;17.70;97.10;;;;;;5092202;28;20098;-54
2021/08/06 07:44:41;;;;;;;65.93;44.15;;;17.80;97.00;;;;;;5088244;28;20476;-54
2021/08/06 07:47:07;;;;;;;65.05;46.88;;;17.80;97.00;;;;;;5092119;28;20081;-54
2021/08/06 07:49:33;;;;;;;69.70;45.70;;;17.90;96.90;;;;;;5092459;28;20039;-52
2021/08/06 07:51:58;;;;;;;67.78;46.88;;;18.00;96.70;;;;;;5074375;28;20036;-55
2021/08/06 07:54:24;;;;;;;72.43;49.42;;;18.10;97.00;;;;;;5092088;28;20077;-51
2021/08/06 07:56:49;;;;;;;73.45;50.90;;;18.10;97.00;;;;;;5091674;28;20040;-52
2021/08/06 07:59:19;;;;;;;68.70;49.20;;;18.30;96.60;;;;;;5093868;28;20028;-53
2021/08/06 08:01:44;;;;;;;71.68;50.25;;;18.40;96.30;;;;;;5091998;28;20012;-49
2021/08/06 08:04:10;;;;;;;72.32;51.38;;;18.30;96.40;;;;;;5073005;28;20031;-52
2021/08/06 08:06:35;;;;;;;73.90;51.53;;;18.40;96.20;;;;;;5090809;28;20463;-53
2021/08/06 08:09:01;;;;;;;69.40;49.95;;;18.70;96.10;;;;;;5091031;28;20427;-54
2021/08/06 08:11:26;;;;;;;68.78;51.58;;;18.90;96.00;;;;;;5090928;28;20408;-49
2021/08/06 08:13:52;;;;;;;71.45;50.42;;;19.10;95.70;;;;;;5090261;28;20455;-51
2021/08/06 08:16:18;;;;;;;76.55;52.83;;;19.00;96.10;;;;;;5090719;28;20031;-55
2021/08/06 08:18:43;;;;;;;69.10;51.50;;;19.10;95.80;;;;;;5090588;28;20039;-52
2021/08/06 08:21:09;;;;;;;69.00;52.30;;;19.10;95.70;;;;;;5090585;28;20020;-51
2021/08/06 08:23:34;;;;;;;63.35;47.92;;;19.10;95.80;;;;;;5090608;28;20083;-50
2021/08/06 08:26:00;;;;;;;63.33;45.72;;;19.10;95.50;;;;;;5071974;28;20034;-53
2021/08/06 08:28:26;;;;;;;60.65;44.72;;;19.10;95.90;;;;;;5089932;28;20563;-50
2021/08/06 08:30:52;;;;;;;53.47;42.45;;;19.00;95.80;;;;;;5091494;28;20082;-48
2021/08/06 08:33:18;;;;;;;54.60;42.03;;;19.00;96.00;;;;;;5091998;28;20060;-53
2021/08/06 08:35:44;;;;;;;54.05;42.25;;;19.20;96.00;;;;;;5090972;28;20040;-50
2021/08/06 08:38:10;;;;;;;50.67;39.55;;;19.30;95.40;;;;;;5088585;28;20470;-52
2021/08/06 08:40:38;;;;;;;59.50;43.22;;;19.50;95.40;;;;;;5093985;28;20024;-53
2021/08/06 08:43:05;;;;;;;51.63;42.30;;;19.60;95.40;;;;;;5092970;28;20566;-54
2021/08/06 08:45:31;;;;;;;48.33;39.08;;;19.70;95.30;;;;;;5088292;28;20036;-51
2021/08/06 08:47:58;;;;;;;49.88;39.38;;;19.70;95.30;;;;;;5091176;28;20089;-53
2021/08/06 08:50:24;;;;;;;49.85;39.83;;;19.70;95.30;;;;;;5073504;28;20066;-49
2021/08/06 08:52:50;;;;;;;43.17;34.88;;;19.80;95.00;;;;;;5091297;28;20368;-51
2021/08/06 08:55:16;;;;;;;42.92;35.30;;;20.00;94.90;;;;;;5091071;28;20034;-47
2021/08/06 08:57:42;;;;;;;43.25;34.65;;;20.20;94.70;;;;;;5094806;28;20044;-49
2021/08/06 09:00:09;;;;;;;39.53;33.10;;;20.30;94.70;;;;;;5094871;28;20475;-52
2021/08/06 09:02:38;;;;;;;46.78;36.88;;;20.40;94.60;;;;;;5095082;28;20027;-50
2021/08/06 09:05:16;;;;;;;44.53;35.83;;;20.50;93.90;;;;;;5094479;28;20016;-51
2021/08/06 09:07:43;;;;;;;44.88;34.67;;;20.60;93.90;;;;;;5095015;28;20055;-49
2021/08/06 09:10:13;;;;;;;41.97;33.63;;;20.60;93.70;;;;;;5094443;28;20039;-49
2021/08/06 09:12:53;;;;;;;40.00;31.88;;;20.70;93.90;;;;;;5095307;28;20498;-49
2021/08/06 09:15:43;;;;;;;39.42;31.65;;;20.70;93.90;;;;;;5094559;28;20070;-56
2021/08/06 09:18:24;;;;;;;32.00;27.90;;;20.70;94.00;;;;;;5094076;28;20054;-53
2021/08/06 09:20:51;;;;;;;32.70;26.75;;;20.70;94.10;;;;;;5092908;28;20023;-50
2021/08/06 09:23:36;;;;;;;28.17;23.92;;;20.90;93.90;;;;;;5094911;28;20032;-48
2021/08/06 09:26:02;;;;;;;26.20;21.75;;;20.80;94.00;;;;;;5093789;28;20055;-53
2021/08/06 09:28:28;;;;;;;22.55;19.88;;;20.80;93.80;;;;;;5091252;28;20158;-47
2021/08/06 09:30:55;;;;;;;21.15;18.55;;;20.80;94.10;;;;;;5094687;28;20502;-53
2021/08/06 09:33:33;;;;;;;19.33;16.70;;;20.90;94.10;;;;;;5094004;28;20028;-52
2021/08/06 09:36:17;;;;;;;20.02;17.30;;;21.10;94.20;;;;;;5093854;28;20055;-50
2021/08/06 09:38:43;;;;;;;17.42;15.52;;;21.40;94.00;;;;;;5094697;28;20025;-53
2021/08/06 09:41:28;;;;;;;18.38;14.15;;;21.60;93.40;;;;;;5094135;28;20389;-47
2021/08/06 09:44:14;;;;;;;19.77;14.68;;;21.50;93.00;;;;;;5094835;28;20032;-55
2021/08/06 09:46:39;;;;;;;15.90;14.23;;;21.60;92.70;;;;;;5094215;28;20571;-50
2021/08/06 09:49:06;;;;;;;16.40;13.57;;;21.60;92.90;;;;;;5094744;28;20118;-54
2021/08/06 09:51:31;;;;;;;15.07;11.75;;;21.80;92.80;;;;;;5094631;28;20503;-50
2021/08/06 09:53:57;;;;;;;11.30;10.20;;;21.90;92.50;;;;;;5094350;28;20043;-50
2021/08/06 09:56:23;;;;;;;9.20;7.60;;;22.00;92.50;;;;;;5094769;28;20495;-47
2021/08/06 09:58:58;;;;;;;9.80;6.57;;;22.10;91.50;;;;;;5077607;28;20498;-50
2021/08/06 10:01:24;;;;;;;7.93;6.93;;;22.30;90.10;;;;;;5081461;28;20024;-49
2021/08/06 10:03:50;;;;;;;8.02;6.30;;;22.20;90.70;;;;;;5094475;28;20403;-45
2021/08/06 10:06:19;;;;;;;7.68;6.68;;;22.20;90.80;;;;;;5093669;28;20020;-47
2021/08/06 10:08:45;;;;;;;7.00;6.30;;;22.10;89.70;;;;;;5094310;28;20110;-51
2021/08/06 10:11:12;;;;;;;7.18;5.82;;;22.00;90.10;;;;;;5089541;28;20028;-57
2021/08/06 10:13:39;;;;;;;7.28;5.78;;;22.10;90.00;;;;;;5094087;28;20064;-47
2021/08/06 10:16:05;;;;;;;5.90;5.40;;;22.40;89.20;;;;;;5051757;28;20043;-47
2021/08/06 10:18:32;;;;;;;7.85;5.70;;;22.70;89.20;;;;;;5093746;28;20032;-46
2021/08/06 10:20:57;;;;;;;5.43;4.93;;;22.90;87.00;;;;;;5087638;28;20059;-47
2021/08/06 10:23:23;;;;;;;5.18;4.68;;;23.10;86.30;;;;;;5093602;28;20056;-51
2021/08/06 10:25:50;;;;;;;5.35;4.88;;;22.90;85.00;;;;;;5094128;28;20035;-50
2021/08/06 10:28:15;;;;;;;5.80;5.25;;;22.90;85.60;;;;;;5086133;28;20068;-52
2021/08/06 10:30:41;;;;;;;7.03;5.28;;;22.80;85.00;;;;;;5083941;28;20066;-51
2021/08/06 10:33:07;;;;;;;5.60;4.90;;;22.60;85.50;;;;;;5085558;28;20043;-51
2021/08/06 10:35:49;;;;;;;6.40;5.25;;;22.60;87.20;;;;;;5083013;28;20036;-56
2021/08/06 10:38:39;;;;;;;5.70;5.20;;;22.90;87.10;;;;;;5082669;28;20139;-49
2021/08/06 10:41:12;;;;;;;5.72;5.13;;;23.00;85.80;;;;;;5080648;28;20128;-53
2021/08/06 10:43:51;;;;;;;6.28;5.32;;;23.00;85.30;;;;;;5080269;28;20086;-55
2021/08/06 10:46:18;;;;;;;5.35;4.85;;;23.10;85.90;;;;;;5081503;28;20059;-55
2021/08/06 10:48:46;;;;;;;6.35;5.75;;;23.30;84.80;;;;;;5084637;28;20067;-48
2021/08/06 10:51:18;;;;;;;6.38;4.78;;;23.30;84.40;;;;;;5082364;28;20036;-50
2021/08/06 10:53:56;;;;;;;5.53;5.03;;;23.20;82.90;;;;;;5090311;28;20051;-48
2021/08/06 10:56:29;;;;;;;4.88;4.47;;;23.20;83.80;;;;;;5087212;28;20512;-49
2021/08/06 10:59:05;;;;;;;4.60;4.15;;;23.40;82.90;;;;;;5088638;28;20101;-48
2021/08/06 11:01:34;;;;;;;4.20;3.80;;;23.20;80.60;;;;;;5071670;28;20479;-49
2021/08/06 11:04:15;;;;;;;6.20;4.75;;;23.20;81.00;;;;;;5086839;28;20105;-49
2021/08/06 11:06:45;;;;;;;4.75;4.32;;;23.40;82.50;;;;;;5081970;28;20044;-52
2021/08/06 11:09:31;;;;;;;6.05;4.03;;;23.40;82.60;;;;;;5086045;28;20039;-48
2021/08/06 11:12:02;;;;;;;4.75;4.20;;;23.80;82.60;;;;;;5062480;28;20048;-54
2021/08/06 11:14:28;;;;;;;7.93;4.07;;;23.80;81.80;;;;;;5089164;28;20024;-47
2021/08/06 11:17:00;;;;;;;6.55;3.80;;;24.00;81.80;;;;;;5067265;28;20644;-50
2021/08/06 11:19:32;;;;;;;4.18;3.78;;;24.10;80.10;;;;;;5081664;28;20625;-50
2021/08/06 11:21:59;;;;;;;4.10;3.58;;;24.00;79.70;;;;;;5071089;28;20032;-50
2021/08/06 11:24:25;;;;;;;4.38;3.97;;;23.90;79.30;;;;;;5085128;28;20024;-53
2021/08/06 11:26:51;;;;;;;5.28;4.20;;;23.60;80.60;;;;;;5087547;28;20071;-50
2021/08/06 11:29:18;;;;;;;4.45;4.05;;;23.50;81.60;;;;;;5085650;28;20028;-53
2021/08/06 11:31:44;;;;;;;5.47;4.18;;;23.50;82.30;;;;;;5084601;28;20042;-47
2021/08/06 11:34:10;;;;;;;4.55;4.13;;;23.50;81.40;;;;;;5089548;28;20036;-50
2021/08/06 11:36:36;;;;;;;5.30;4.80;;;23.50;82.00;;;;;;5085540;28;20031;-48
2021/08/06 11:39:15;;;;;;;5.60;4.22;;;23.50;82.30;;;;;;5068114;28;20073;-51
2021/08/06 11:41:49;;;;;;;5.53;4.32;;;23.50;82.90;;;;;;5084143;28;20042;-49
2021/08/06 11:44:15;;;;;;;4.38;3.92;;;23.40;82.40;;;;;;5090728;28;20028;-52
2021/08/06 11:46:52;;;;;;;6.18;4.50;;;23.30;83.20;;;;;;5083874;28;20076;-51
2021/08/06 11:49:18;;;;;;;6.35;4.13;;;23.40;81.50;;;;;;5082345;28;20038;-53
2021/08/06 11:51:52;;;;;;;4.75;4.32;;;23.50;82.30;;;;;;5087736;28;20024;-48
2021/08/06 11:54:19;;;;;;;5.13;4.00;;;23.50;82.20;;;;;;5084718;28;20036;-51
2021/08/06 11:56:55;;;;;;;5.07;3.90;;;23.30;83.40;;;;;;5083202;28;20028;-52
2021/08/06 11:59:21;;;;;;;5.93;4.53;;;22.80;86.50;;;;;;5067368;28;20395;-51
2021/08/06 12:01:46;;;;;;;5.47;4.20;;;22.00;89.90;;;;;;5090512;28;20033;-52
2021/08/06 12:04:12;;;;;;;4.20;3.60;;;21.90;90.20;;;;;;5071167;28;20024;-48
2021/08/06 12:06:44;;;;;;;5.63;3.60;;;21.70;90.20;;;;;;5082810;28;20050;-55
2021/08/06 12:09:10;;;;;;;4.93;3.50;;;21.80;89.90;;;;;;5089605;28;20028;-51
2021/08/06 12:11:47;;;;;;;3.83;3.42;;;21.60;89.20;;;;;;5088522;28;20028;-51
2021/08/06 12:14:26;;;;;;;4.78;4.28;;;21.50;90.60;;;;;;5083818;28;20043;-52
2021/08/06 12:16:51;;;;;;;3.72;3.33;;;21.60;90.20;;;;;;5081268;28;20633;-53
2021/08/06 12:19:17;;;;;;;4.45;3.85;;;21.80;90.10;;;;;;5088631;28;20488;-53
2021/08/06 12:21:45;;;;;;;4.30;3.60;;;21.80;89.60;;;;;;5086172;28;20117;-54
2021/08/06 12:24:17;;;;;;;4.35;3.55;;;21.90;89.60;;;;;;5089853;28;20089;-55
2021/08/06 12:26:54;;;;;;;9.02;4.28;;;21.80;90.00;;;;;;5084717;28;20036;-48
2021/08/06 12:29:31;;;;;;;4.88;4.32;;;22.10;90.10;;;;;;5085761;28;20538;-55
2021/08/06 12:32:19;;;;;;;5.10;3.85;;;22.20;90.10;;;;;;5090834;28;20032;-49
2021/08/06 12:34:50;;;;;;;5.13;4.43;;;22.40;90.00;;;;;;5091158;28;20439;-48